createdAt,value
2022-09-14T00:01:26.873Z,79.94
2022-09-14T00:04:08.465Z,79.52
2022-09-14T00:06:35.334Z,78.81
2022-09-14T00:09:03.648Z,78.72
2022-09-14T00:11:31.832Z,78.41
2022-09-14T00:13:59.836Z,78.92
2022-09-14T00:16:29.336Z,79.18
2022-09-14T00:19:00.562Z,79.19
2022-09-14T00:21:29.157Z,78.76
2022-09-14T00:23:55.874Z,79.34
2022-09-14T00:26:23.514Z,80.40
2022-09-14T00:28:52.501Z,81.32
2022-09-14T00:31:20.704Z,81.49
2022-09-14T00:33:49.241Z,82.23
2022-09-14T00:36:27.983Z,81.82
2022-09-14T00:39:00.549Z,82.44
2022-09-14T00:41:32.936Z,81.30
2022-09-14T00:44:02.616Z,81.11
2022-09-14T00:46:44.757Z,80.86
2022-09-14T00:49:24.104Z,80.70
2022-09-14T00:51:59.759Z,80.85
2022-09-14T00:54:27.048Z,81.06
2022-09-14T00:56:54.740Z,81.21
2022-09-14T00:59:28.919Z,81.24
2022-09-14T01:01:55.802Z,81.67
2022-09-14T01:04:23.495Z,81.14
2022-09-14T01:07:06.557Z,80.96
2022-09-14T01:09:39.233Z,80.55
2022-09-14T01:12:26.639Z,81.07
2022-09-14T01:15:31.968Z,81.57
2022-09-14T01:17:58.480Z,81.37
2022-09-14T01:20:33.982Z,81.22
2022-09-14T01:23:18.616Z,81.33
2022-09-14T01:26:03.922Z,81.60
2022-09-14T01:28:57.538Z,81.66
2022-09-14T01:31:56.753Z,82.26
2022-09-14T01:34:34.173Z,82.64
2022-09-14T01:37:13.323Z,82.60
2022-09-14T01:39:56.790Z,82.85
2022-09-14T01:42:26.615Z,81.93
2022-09-14T01:44:57.450Z,81.66
2022-09-14T01:47:36.930Z,81.61
2022-09-14T01:50:10.501Z,81.19
2022-09-14T01:52:48.596Z,81.49
2022-09-14T01:55:31.689Z,81.49
2022-09-14T01:58:09.231Z,80.89
2022-09-14T02:00:41.428Z,80.45
2022-09-14T02:03:23.880Z,80.41
2022-09-14T02:06:02.573Z,80.13
2022-09-14T02:08:31.266Z,80.00
2022-09-14T02:10:58.991Z,80.19
2022-09-14T02:13:26.495Z,79.93
2022-09-14T02:15:53.363Z,79.98
2022-09-14T02:18:20.740Z,79.81
2022-09-14T02:20:53.400Z,79.51
2022-09-14T02:23:20.157Z,79.70
2022-09-14T02:25:47.429Z,78.89
2022-09-14T02:28:14.321Z,78.93
2022-09-14T02:31:12.768Z,78.67
2022-09-14T02:33:43.681Z,80.36
2022-09-14T02:36:51.702Z,79.54
2022-09-14T02:39:35.545Z,79.59
2022-09-14T02:42:17.181Z,80.00
2022-09-14T02:44:55.943Z,79.93
2022-09-14T02:47:46.663Z,79.80
2022-09-14T02:50:27.214Z,81.24
2022-09-14T02:53:08.072Z,80.99
2022-09-14T02:55:39.413Z,80.73
2022-09-14T02:58:13.984Z,80.97
2022-09-14T03:00:43.311Z,80.86
2022-09-14T03:03:12.263Z,81.37
2022-09-14T03:05:39.178Z,81.43
2022-09-14T03:08:06.479Z,80.97
2022-09-14T03:10:33.351Z,80.89
2022-09-14T03:13:00.523Z,81.01
2022-09-14T03:15:28.124Z,80.99
2022-09-14T03:17:54.800Z,81.14
2022-09-14T03:20:24.612Z,81.32
2022-09-14T03:22:51.539Z,81.09
2022-09-14T03:25:23.033Z,82.21
2022-09-14T03:27:51.016Z,81.82
2022-09-14T03:30:18.738Z,82.08
2022-09-14T03:32:45.776Z,82.28
2022-09-14T03:35:13.229Z,82.37
2022-09-14T03:37:41.540Z,82.66
2022-09-14T03:40:10.516Z,82.54
2022-09-14T03:42:37.273Z,82.15
2022-09-14T03:45:04.466Z,81.80
2022-09-14T03:47:31.305Z,81.86
2022-09-14T03:49:58.056Z,82.08
2022-09-14T03:52:24.760Z,82.02
2022-09-14T03:54:51.441Z,82.62
2022-09-14T03:57:18.196Z,83.73
2022-09-14T03:59:44.876Z,84.57
2022-09-14T04:02:11.651Z,86.32
2022-09-14T04:04:38.393Z,87.54
2022-09-14T04:07:05.085Z,87.39
2022-09-14T04:09:31.831Z,87.78
2022-09-14T04:11:58.526Z,88.79
2022-09-14T04:14:25.318Z,89.11
2022-09-14T04:16:51.998Z,90.47
2022-09-14T04:19:18.740Z,90.20
2022-09-14T04:21:45.817Z,91.21
2022-09-14T04:24:16.404Z,91.69
2022-09-14T04:26:44.557Z,92.70
2022-09-14T04:29:12.768Z,92.97
2022-09-14T04:31:39.472Z,94.00
2022-09-14T04:34:06.695Z,93.97
2022-09-14T04:36:33.799Z,94.86
2022-09-14T04:39:02.708Z,94.04
2022-09-14T04:41:30.734Z,94.35
2022-09-14T04:43:58.449Z,94.37
2022-09-14T04:46:31.284Z,94.76
2022-09-14T04:48:58.756Z,94.39
2022-09-14T04:51:27.889Z,95.93
2022-09-14T04:53:56.497Z,95.85
2022-09-14T04:56:24.217Z,96.27
2022-09-14T04:58:56.175Z,96.44
2022-09-14T05:01:25.683Z,96.70
2022-09-14T05:03:53.312Z,96.76
2022-09-14T05:06:26.298Z,97.82
2022-09-14T05:08:54.229Z,97.33
2022-09-14T05:11:25.424Z,96.91
2022-09-14T05:13:52.365Z,96.95
2022-09-14T05:16:21.669Z,97.39
2022-09-14T05:18:49.057Z,97.70
2022-09-14T05:21:17.914Z,97.31
2022-09-14T05:23:44.762Z,99.11
2022-09-14T05:26:12.029Z,99.42
2022-09-14T05:28:38.767Z,100.00
2022-09-14T05:31:07.710Z,100.00
2022-09-14T05:33:35.213Z,100.00
2022-09-14T05:36:03.718Z,100.00
2022-09-14T05:38:31.935Z,100.00
2022-09-14T05:40:58.546Z,100.00
2022-09-14T05:43:25.856Z,100.00
2022-09-14T05:45:52.572Z,100.00
2022-09-14T05:48:19.718Z,99.53
2022-09-14T05:50:47.347Z,100.00
2022-09-14T05:53:14.117Z,100.00
2022-09-14T05:55:40.800Z,100.00
2022-09-14T05:58:07.390Z,99.74
2022-09-14T06:00:34.079Z,98.99
2022-09-14T06:03:00.690Z,99.40
2022-09-14T06:05:28.219Z,99.31
2022-09-14T06:07:54.954Z,98.24
2022-09-14T06:10:22.081Z,96.97
2022-09-14T06:12:51.269Z,96.67
2022-09-14T06:15:24.551Z,96.23
2022-09-14T06:17:51.205Z,94.65
2022-09-14T06:20:18.812Z,93.50
2022-09-14T06:22:45.479Z,92.65
2022-09-14T06:25:12.181Z,91.77
2022-09-14T06:27:38.898Z,90.74
2022-09-14T06:30:06.143Z,88.93
2022-09-14T06:32:32.777Z,86.85
2022-09-14T06:34:59.565Z,86.44
2022-09-14T06:37:26.182Z,86.59
2022-09-14T06:39:53.029Z,84.30
2022-09-14T06:42:19.614Z,83.92
2022-09-14T06:44:47.553Z,84.72
2022-09-14T06:47:14.173Z,86.40
2022-09-14T06:49:40.843Z,84.82
2022-09-14T06:52:07.445Z,82.78
2022-09-14T06:54:34.210Z,81.95
2022-09-14T06:57:00.809Z,82.33
2022-09-14T06:59:27.453Z,83.56
2022-09-14T07:01:54.265Z,83.90
2022-09-14T07:04:21.549Z,85.00
2022-09-14T07:06:49.928Z,84.72
2022-09-14T07:09:18.812Z,81.84
2022-09-14T07:11:46.058Z,77.12
2022-09-14T07:14:12.745Z,77.06
2022-09-14T07:16:40.368Z,71.76
2022-09-14T07:19:11.580Z,72.14
2022-09-14T07:21:38.475Z,71.92
2022-09-14T07:24:05.729Z,70.93
2022-09-14T07:26:39.559Z,72.33
2022-09-14T07:29:10.036Z,66.91
2022-09-14T07:31:40.682Z,63.41
2022-09-14T07:34:08.034Z,67.05
2022-09-14T07:36:36.069Z,66.65
2022-09-14T07:39:05.515Z,64.91
2022-09-14T07:41:34.176Z,59.74
2022-09-14T07:44:02.645Z,52.63
2022-09-14T07:46:33.050Z,50.47
2022-09-14T07:49:01.697Z,51.02
2022-09-14T07:51:29.777Z,50.97
2022-09-14T07:53:57.142Z,49.34
2022-09-14T07:56:25.605Z,50.54
2022-09-14T07:59:11.381Z,48.21
2022-09-14T08:01:44.180Z,49.74
2022-09-14T08:04:11.097Z,48.08
2022-09-14T08:06:37.865Z,52.15
2022-09-14T08:09:10.903Z,57.08
2022-09-14T08:11:38.584Z,53.78
2022-09-14T08:14:09.919Z,50.92
2022-09-14T08:16:38.699Z,51.72
2022-09-14T08:19:10.716Z,46.52
2022-09-14T08:21:37.429Z,48.59
2022-09-14T08:24:04.736Z,49.44
2022-09-14T08:26:31.690Z,52.01
2022-09-14T08:29:00.460Z,52.58
2022-09-14T08:31:28.839Z,51.05
2022-09-14T08:34:03.689Z,53.35
2022-09-14T08:36:36.137Z,56.18
2022-09-14T08:39:03.783Z,52.38
2022-09-14T08:41:46.004Z,53.54
2022-09-14T08:44:37.904Z,55.94
2022-09-14T08:47:11.348Z,54.32
2022-09-14T08:50:12.314Z,53.93
2022-09-14T08:52:43.762Z,55.47
2022-09-14T08:55:16.196Z,55.23
2022-09-14T08:57:50.475Z,53.23
2022-09-14T09:00:31.226Z,51.25
2022-09-14T09:03:25.942Z,46.81
2022-09-14T09:06:15.665Z,46.26
2022-09-14T09:09:02.719Z,48.06
2022-09-14T09:11:40.970Z,46.67
2022-09-14T09:14:32.132Z,47.43
2022-09-14T09:17:03.229Z,48.15
2022-09-14T09:19:58.939Z,48.66
2022-09-14T09:22:29.702Z,45.89
2022-09-14T09:24:58.663Z,50.21
2022-09-14T09:27:27.730Z,50.23
2022-09-14T09:29:54.387Z,50.49
2022-09-14T09:32:24.748Z,48.86
2022-09-14T09:34:51.797Z,48.65
2022-09-14T09:37:22.492Z,48.84
2022-09-14T09:39:50.318Z,52.64
2022-09-14T09:42:25.458Z,52.64
2022-09-14T09:45:05.826Z,52.57
2022-09-14T09:47:37.578Z,52.51
2022-09-14T09:50:26.178Z,52.59
2022-09-14T09:53:03.269Z,53.48
2022-09-14T09:55:38.918Z,55.34
2022-09-14T09:58:35.944Z,56.79
2022-09-14T10:01:12.062Z,56.27
2022-09-14T10:03:40.933Z,56.39
2022-09-14T10:06:13.035Z,57.24
2022-09-14T10:08:45.379Z,58.59
2022-09-14T10:11:48.242Z,61.03
2022-09-14T10:14:33.754Z,62.48
2022-09-14T10:17:18.337Z,61.75
2022-09-14T10:19:52.198Z,61.75
2022-09-14T10:22:21.922Z,61.83
2022-09-14T10:25:01.332Z,62.35
2022-09-14T10:27:35.730Z,62.64
2022-09-14T10:30:07.109Z,60.11
2022-09-14T10:32:34.640Z,59.95
2022-09-14T10:35:01.413Z,56.87
2022-09-14T10:37:49.238Z,56.99
2022-09-14T10:40:19.705Z,59.46
2022-09-14T10:43:17.210Z,59.42
2022-09-14T10:46:02.135Z,58.54
2022-09-14T10:48:54.352Z,58.69
2022-09-14T10:51:47.201Z,56.88
2022-09-14T10:54:46.109Z,55.26
2022-09-14T10:57:34.974Z,54.19
2022-09-14T11:00:22.983Z,54.15
2022-09-14T11:02:55.811Z,55.81
2022-09-14T11:05:27.923Z,58.23
2022-09-14T11:08:09.669Z,59.54
2022-09-14T11:10:41.320Z,58.60
2022-09-14T11:13:37.482Z,59.86
2022-09-14T11:16:09.833Z,57.72
2022-09-14T11:19:01.232Z,57.38
2022-09-14T11:21:57.003Z,58.50
2022-09-14T11:24:51.113Z,59.98
2022-09-14T11:27:23.321Z,61.61
2022-09-14T11:29:55.586Z,59.98
2022-09-14T11:32:31.458Z,62.20
2022-09-14T11:35:12.935Z,61.10
2022-09-14T11:37:45.424Z,57.91
2022-09-14T11:40:36.780Z,53.72
2022-09-14T11:43:14.040Z,54.91
2022-09-14T11:46:08.498Z,54.93
2022-09-14T11:48:42.841Z,56.97
2022-09-14T11:51:17.278Z,57.98
2022-09-14T11:53:45.059Z,57.06
2022-09-14T11:56:23.757Z,58.16
2022-09-14T11:58:50.883Z,59.78
2022-09-14T12:01:47.499Z,62.75
2022-09-14T12:04:17.512Z,61.31
2022-09-14T12:06:48.006Z,59.29
2022-09-14T12:09:17.562Z,62.58
2022-09-14T12:11:45.566Z,64.13
2022-09-14T12:14:24.317Z,70.17
2022-09-14T12:17:35.778Z,68.47
2022-09-14T12:20:32.661Z,69.48
2022-09-14T12:23:07.639Z,67.49
2022-09-14T12:25:36.637Z,68.47
2022-09-14T12:28:03.321Z,69.13
2022-09-14T12:30:50.296Z,70.14
2022-09-14T12:33:32.162Z,66.71
2022-09-14T12:36:12.304Z,68.18
2022-09-14T12:38:41.832Z,69.77
2022-09-14T12:41:08.374Z,67.77
2022-09-14T12:43:35.136Z,68.63
2022-09-14T12:46:02.870Z,66.72
2022-09-14T12:48:47.554Z,64.29
2022-09-14T12:51:19.728Z,60.51
2022-09-14T12:53:51.821Z,59.82
2022-09-14T12:56:34.473Z,61.15
2022-09-14T12:59:29.943Z,59.56
2022-09-14T13:02:27.845Z,61.78
2022-09-14T13:04:58.061Z,60.57
2022-09-14T13:07:30.698Z,61.83
2022-09-14T13:09:58.929Z,61.22
2022-09-14T13:12:44.455Z,60.60
2022-09-14T13:15:43.986Z,60.24
2022-09-14T13:18:19.363Z,59.89
2022-09-14T13:20:51.374Z,58.50
2022-09-14T13:23:28.571Z,59.99
2022-09-14T13:25:56.015Z,61.44
2022-09-14T13:28:26.636Z,59.75
2022-09-14T13:30:58.827Z,58.27
2022-09-14T13:33:26.032Z,57.99
2022-09-14T13:35:58.010Z,57.89
2022-09-14T13:38:32.662Z,58.03
2022-09-14T13:41:18.014Z,61.42
2022-09-14T13:43:47.395Z,62.31
2022-09-14T13:46:18.358Z,62.50
2022-09-14T13:48:47.113Z,61.61
2022-09-14T13:51:14.833Z,62.55
2022-09-14T13:53:50.013Z,61.95
2022-09-14T13:56:33.701Z,62.27
2022-09-14T13:59:10.565Z,61.87
2022-09-14T14:01:44.007Z,63.53
2022-09-14T14:04:35.706Z,64.41
2022-09-14T14:07:23.119Z,64.85
2022-09-14T14:09:55.261Z,65.71
2022-09-14T14:12:26.422Z,65.90
2022-09-14T14:15:09.371Z,67.60
2022-09-14T14:17:38.576Z,65.88
2022-09-14T14:20:24.099Z,66.18
2022-09-14T14:22:58.193Z,68.91
2022-09-14T14:25:45.791Z,66.42
2022-09-14T14:28:25.891Z,69.42
2022-09-14T14:30:54.209Z,68.94
2022-09-14T14:33:22.560Z,67.50
2022-09-14T14:35:54.614Z,68.66
2022-09-14T14:38:23.701Z,74.95
2022-09-14T14:40:55.097Z,74.46
2022-09-14T14:43:25.244Z,78.73
2022-09-14T14:45:58.040Z,79.34
2022-09-14T14:48:26.181Z,82.23
2022-09-14T14:50:55.476Z,79.95
2022-09-14T14:53:25.742Z,77.55
2022-09-14T14:55:53.184Z,82.32
2022-09-14T14:58:21.680Z,83.08
2022-09-14T15:00:48.454Z,83.95
2022-09-14T15:03:16.002Z,82.89
2022-09-14T15:05:44.664Z,83.69
2022-09-14T15:08:12.773Z,83.83
2022-09-14T15:10:40.150Z,83.84
2022-09-14T15:13:07.738Z,84.38
2022-09-14T15:15:34.623Z,85.81
2022-09-14T15:18:01.393Z,82.38
2022-09-14T15:20:28.251Z,82.45
2022-09-14T15:22:55.067Z,84.70
2022-09-14T15:25:21.820Z,84.02
2022-09-14T15:27:48.549Z,82.67
2022-09-14T15:30:15.695Z,83.40
2022-09-14T15:32:42.846Z,80.10
2022-09-14T15:35:12.879Z,77.27
2022-09-14T15:37:39.694Z,76.20
2022-09-14T15:40:07.058Z,79.47
2022-09-14T15:42:33.911Z,79.69
2022-09-14T15:45:00.621Z,80.14
2022-09-14T15:47:27.224Z,76.61
2022-09-14T15:49:53.974Z,75.53
2022-09-14T15:52:20.735Z,74.32
2022-09-14T15:54:48.432Z,75.13
2022-09-14T15:57:15.555Z,74.78
2022-09-14T15:59:42.261Z,73.35
2022-09-14T16:02:12.092Z,74.04
2022-09-14T16:04:39.315Z,73.30
2022-09-14T16:07:09.759Z,72.60
2022-09-14T16:09:41.301Z,73.58
2022-09-14T16:12:10.005Z,75.53
2022-09-14T16:14:37.570Z,76.97
2022-09-14T16:17:05.546Z,76.98
2022-09-14T16:19:32.681Z,77.48
2022-09-14T16:21:59.649Z,76.01
2022-09-14T16:24:27.357Z,77.01
2022-09-14T16:26:54.146Z,77.60
2022-09-14T16:29:24.078Z,77.65
2022-09-14T16:31:51.295Z,77.57
2022-09-14T16:34:24.126Z,77.71
2022-09-14T16:36:51.693Z,77.95
2022-09-14T16:39:22.952Z,78.83
2022-09-14T16:41:49.949Z,78.72
2022-09-14T16:44:21.990Z,79.23
2022-09-14T16:46:49.575Z,79.85
2022-09-14T16:49:17.533Z,79.35
2022-09-14T16:51:44.455Z,80.24
2022-09-14T16:54:16.136Z,80.87
2022-09-14T16:56:43.487Z,79.90
2022-09-14T16:59:10.609Z,80.57
2022-09-14T17:01:40.094Z,81.64
2022-09-14T17:04:15.959Z,82.34
2022-09-14T17:06:44.827Z,80.89
2022-09-14T17:09:15.521Z,80.17
2022-09-14T17:11:43.101Z,81.21
2022-09-14T17:14:14.246Z,81.56
2022-09-14T17:16:40.892Z,82.90
2022-09-14T17:19:07.825Z,83.41
2022-09-14T17:21:37.934Z,82.71
2022-09-14T17:24:05.777Z,83.00
2022-09-14T17:26:32.938Z,82.79
2022-09-14T17:29:00.677Z,83.32
2022-09-14T17:31:30.515Z,82.92
2022-09-14T17:34:00.273Z,84.15
2022-09-14T17:36:27.381Z,84.64
2022-09-14T17:38:57.962Z,84.14
2022-09-14T17:41:28.039Z,83.54
2022-09-14T17:43:57.569Z,84.69
2022-09-14T17:46:25.515Z,83.71
2022-09-14T17:48:52.292Z,82.94
2022-09-14T17:51:22.071Z,83.28
2022-09-14T17:53:53.757Z,83.16
2022-09-14T17:56:23.622Z,83.71
2022-09-14T17:58:58.736Z,83.50
2022-09-14T18:01:25.447Z,83.34
2022-09-14T18:03:55.594Z,83.78
2022-09-14T18:06:25.616Z,83.50
2022-09-14T18:08:57.582Z,83.29
2022-09-14T18:11:24.556Z,83.61
2022-09-14T18:13:51.580Z,83.36
2022-09-14T18:16:20.755Z,82.75
2022-09-14T18:18:47.740Z,82.80
2022-09-14T18:21:16.776Z,83.05
2022-09-14T18:23:43.873Z,82.94
2022-09-14T18:26:10.639Z,83.05
2022-09-14T18:28:37.464Z,82.52
2022-09-14T18:31:07.118Z,82.55
2022-09-14T18:33:34.605Z,82.17
2022-09-14T18:36:01.808Z,82.50
2022-09-14T18:38:30.003Z,81.87
2022-09-14T18:41:06.861Z,82.13
2022-09-14T18:43:34.036Z,82.75
2022-09-14T18:46:04.618Z,83.32
2022-09-14T18:48:31.445Z,84.05
2022-09-14T18:51:02.734Z,84.01
2022-09-14T18:53:29.441Z,83.67
2022-09-14T18:56:04.390Z,83.19
2022-09-14T18:58:35.381Z,83.63
2022-09-14T19:01:03.273Z,83.04
2022-09-14T19:03:31.103Z,83.52
2022-09-14T19:05:58.834Z,83.14
2022-09-14T19:08:25.616Z,83.23
2022-09-14T19:10:52.411Z,83.59
2022-09-14T19:13:19.027Z,84.47
2022-09-14T19:15:45.800Z,83.86
2022-09-14T19:18:12.693Z,84.10
2022-09-14T19:21:04.825Z,83.93
2022-09-14T19:23:27.071Z,84.28
2022-09-14T19:25:53.700Z,84.55
2022-09-14T19:28:20.345Z,84.66
2022-09-14T19:30:48.731Z,84.96
2022-09-14T19:33:15.483Z,85.67
2022-09-14T19:35:42.249Z,85.71
2022-09-14T19:38:08.890Z,85.56
2022-09-14T19:40:35.624Z,86.24
2022-09-14T19:43:02.392Z,86.33
2022-09-14T19:45:29.362Z,86.33
2022-09-14T19:47:55.990Z,85.86
2022-09-14T19:50:22.649Z,85.83
2022-09-14T19:52:49.361Z,85.80
2022-09-14T19:55:16.185Z,86.20
2022-09-14T19:57:42.767Z,87.73
2022-09-14T20:00:16.285Z,87.53
2022-09-14T20:02:46.026Z,88.12
2022-09-14T20:05:13.229Z,87.45
2022-09-14T20:07:39.933Z,88.28
2022-09-14T20:10:07.257Z,87.78
2022-09-14T20:12:34.046Z,87.50
2022-09-14T20:15:00.705Z,87.64
2022-09-14T20:17:27.454Z,88.36
2022-09-14T20:19:54.209Z,88.80
2022-09-14T20:22:20.849Z,88.63
2022-09-14T20:24:47.555Z,89.22
2022-09-14T20:27:14.152Z,89.10
2022-09-14T20:29:40.758Z,89.52
2022-09-14T20:32:07.378Z,89.23
2022-09-14T20:34:34.526Z,89.89
2022-09-14T20:37:01.254Z,89.56
2022-09-14T20:39:28.179Z,89.59
2022-09-14T20:41:54.869Z,89.99
2022-09-14T20:44:24.637Z,89.84
2022-09-14T20:46:51.845Z,90.37
2022-09-14T20:49:21.037Z,91.15
2022-09-14T20:51:48.210Z,91.52
2022-09-14T20:54:17.015Z,93.42
2022-09-14T20:56:44.803Z,92.43
2022-09-14T20:59:14.454Z,91.41
2022-09-14T21:01:43.286Z,92.63
2022-09-14T21:04:16.483Z,91.52
2022-09-14T21:06:46.352Z,90.90
2022-09-14T21:09:14.884Z,91.66
2022-09-14T21:11:42.153Z,91.67
2022-09-14T21:14:09.011Z,91.23
2022-09-14T21:16:38.418Z,90.86
2022-09-14T21:19:08.850Z,91.16
2022-09-14T21:21:35.979Z,90.50
2022-09-14T21:24:04.656Z,90.23
2022-09-14T21:26:34.514Z,89.87
2022-09-14T21:29:04.841Z,89.64
2022-09-14T21:31:32.172Z,89.94
2022-09-14T21:34:01.651Z,89.83
2022-09-14T21:36:34.918Z,90.16
2022-09-14T21:39:08.517Z,91.12
2022-09-14T21:41:39.751Z,91.27
2022-09-14T21:44:06.563Z,90.94
2022-09-14T21:46:33.708Z,91.72
2022-09-14T21:49:00.641Z,92.17
2022-09-14T21:51:30.482Z,92.57
2022-09-14T21:54:02.345Z,92.17
2022-09-14T21:56:30.899Z,91.74
2022-09-14T21:58:59.981Z,91.53
2022-09-14T22:01:27.836Z,90.31
2022-09-14T22:03:55.675Z,90.53
2022-09-14T22:06:24.709Z,90.36
2022-09-14T22:08:52.434Z,89.90
2022-09-14T22:11:29.052Z,89.95
2022-09-14T22:14:01.247Z,89.91
2022-09-14T22:16:29.795Z,89.79
2022-09-14T22:18:59.339Z,89.68
2022-09-14T22:21:27.941Z,89.71
2022-09-14T22:23:56.868Z,89.82
2022-09-14T22:26:25.162Z,89.92
2022-09-14T22:28:53.612Z,89.79
2022-09-14T22:31:22.599Z,90.14
2022-09-14T22:33:50.531Z,90.46
2022-09-14T22:36:17.739Z,90.38
2022-09-14T22:38:45.659Z,91.23
2022-09-14T22:41:15.152Z,91.64
2022-09-14T22:43:41.778Z,91.56
2022-09-14T22:46:09.170Z,91.86
2022-09-14T22:48:36.483Z,92.05
2022-09-14T22:51:05.034Z,92.17
2022-09-14T22:53:32.282Z,93.16
2022-09-14T22:55:59.316Z,93.52
2022-09-14T22:58:27.845Z,93.69
2022-09-14T23:00:54.520Z,94.27
2022-09-14T23:03:21.245Z,94.88
2022-09-14T23:05:53.294Z,95.39
2022-09-14T23:08:19.956Z,95.58
2022-09-14T23:10:47.764Z,95.60
2022-09-14T23:13:15.461Z,95.68
2022-09-14T23:15:42.434Z,95.72
2022-09-14T23:18:09.690Z,95.76
2022-09-14T23:20:44.015Z,95.67
2022-09-14T23:23:11.697Z,95.58
2022-09-14T23:25:39.996Z,95.32
2022-09-14T23:28:09.507Z,95.40
2022-09-14T23:30:36.134Z,95.81
2022-09-14T23:33:02.844Z,96.24
2022-09-14T23:35:29.874Z,95.92
2022-09-14T23:37:56.746Z,96.05
2022-09-14T23:40:23.555Z,95.49
2022-09-14T23:42:50.411Z,94.77
2022-09-14T23:45:17.133Z,94.83
2022-09-14T23:47:45.965Z,94.90
2022-09-14T23:50:12.638Z,95.03
2022-09-14T23:52:40.243Z,94.37
2022-09-14T23:55:07.617Z,94.07
2022-09-14T23:57:34.256Z,93.18
